sensor_id;sensor_type;location;lat;lon;timestamp;P1;durP1;ratioP1;P2;durP2;ratioP2
35971;SDS011;22052;0.000;0.000;2022-07-18T00:00:29;0.43;;;0.40;;
35971;SDS011;22052;0.000;0.000;2022-07-18T00:02:57;0.93;;;0.57;;
35971;SDS011;22052;0.000;0.000;2022-07-18T00:05:25;0.98;;;0.57;;
35971;SDS011;22052;0.000;0.000;2022-07-18T00:07:53;0.80;;;0.60;;
35971;SDS011;22052;0.000;0.000;2022-07-18T00:10:22;0.43;;;0.43;;
35971;SDS011;22052;0.000;0.000;2022-07-18T00:12:50;0.57;;;0.40;;
35971;SDS011;22052;0.000;0.000;2022-07-18T00:15:19;0.52;;;0.40;;
35971;SDS011;22052;0.000;0.000;2022-07-18T00:17:47;0.68;;;0.40;;
35971;SDS011;22052;0.000;0.000;2022-07-18T00:20:14;0.52;;;0.43;;
35971;SDS011;22052;0.000;0.000;2022-07-18T00:22:42;0.50;;;0.50;;
35971;SDS011;22052;0.000;0.000;2022-07-18T00:25:09;0.43;;;0.40;;
35971;SDS011;22052;0.000;0.000;2022-07-18T00:27:38;0.60;;;0.60;;
35971;SDS011;22052;0.000;0.000;2022-07-18T00:30:05;0.40;;;0.30;;
35971;SDS011;22052;0.000;0.000;2022-07-18T00:32:41;0.50;;;0.40;;
35971;SDS011;22052;0.000;0.000;2022-07-18T00:35:13;0.93;;;0.40;;
35971;SDS011;22052;0.000;0.000;2022-07-18T00:37:44;0.55;;;0.40;;
35971;SDS011;22052;0.000;0.000;2022-07-18T00:40:14;0.40;;;0.40;;
35971;SDS011;22052;0.000;0.000;2022-07-18T00:42:42;0.30;;;0.30;;
35971;SDS011;22052;0.000;0.000;2022-07-18T00:45:09;0.55;;;0.38;;
35971;SDS011;22052;0.000;0.000;2022-07-18T00:47:44;0.40;;;0.30;;
35971;SDS011;22052;0.000;0.000;2022-07-18T00:50:11;0.63;;;0.40;;
35971;SDS011;22052;0.000;0.000;2022-07-18T00:52:39;0.50;;;0.50;;
35971;SDS011;22052;0.000;0.000;2022-07-18T00:55:07;0.30;;;0.30;;
35971;SDS011;22052;0.000;0.000;2022-07-18T00:57:35;0.30;;;0.30;;
35971;SDS011;22052;0.000;0.000;2022-07-18T01:00:04;0.30;;;0.30;;
35971;SDS011;22052;0.000;0.000;2022-07-18T01:02:50;0.77;;;0.50;;
35971;SDS011;22052;0.000;0.000;2022-07-18T01:05:17;0.43;;;0.43;;
35971;SDS011;22052;0.000;0.000;2022-07-18T01:07:45;0.52;;;0.40;;
35971;SDS011;22052;0.000;0.000;2022-07-18T01:10:13;0.60;;;0.43;;
35971;SDS011;22052;0.000;0.000;2022-07-18T01:12:44;0.60;;;0.47;;
35971;SDS011;22052;0.000;0.000;2022-07-18T01:15:13;0.52;;;0.40;;
35971;SDS011;22052;0.000;0.000;2022-07-18T01:17:41;0.30;;;0.30;;
35971;SDS011;22052;0.000;0.000;2022-07-18T01:20:09;0.40;;;0.32;;
35971;SDS011;22052;0.000;0.000;2022-07-18T01:22:37;0.63;;;0.30;;
35971;SDS011;22052;0.000;0.000;2022-07-18T01:25:10;0.65;;;0.50;;
35971;SDS011;22052;0.000;0.000;2022-07-18T01:27:40;0.30;;;0.30;;
35971;SDS011;22052;0.000;0.000;2022-07-18T01:30:09;0.50;;;0.50;;
35971;SDS011;22052;0.000;0.000;2022-07-18T01:32:43;0.40;;;0.40;;
35971;SDS011;22052;0.000;0.000;2022-07-18T01:35:12;0.32;;;0.32;;
35971;SDS011;22052;0.000;0.000;2022-07-18T01:37:40;0.50;;;0.38;;
35971;SDS011;22052;0.000;0.000;2022-07-18T01:40:09;0.60;;;0.30;;
35971;SDS011;22052;0.000;0.000;2022-07-18T01:42:37;0.30;;;0.30;;
35971;SDS011;22052;0.000;0.000;2022-07-18T01:45:05;0.60;;;0.40;;
35971;SDS011;22052;0.000;0.000;2022-07-18T01:47:36;0.30;;;0.30;;
35971;SDS011;22052;0.000;0.000;2022-07-18T01:50:05;0.40;;;0.35;;
35971;SDS011;22052;0.000;0.000;2022-07-18T01:52:35;0.43;;;0.43;;
35971;SDS011;22052;0.000;0.000;2022-07-18T01:55:04;0.40;;;0.30;;
35971;SDS011;22052;0.000;0.000;2022-07-18T01:57:33;0.40;;;0.40;;
35971;SDS011;22052;0.000;0.000;2022-07-18T02:00:01;0.55;;;0.40;;
35971;SDS011;22052;0.000;0.000;2022-07-18T02:02:28;0.77;;;0.40;;
35971;SDS011;22052;0.000;0.000;2022-07-18T02:04:57;0.35;;;0.25;;
35971;SDS011;22052;0.000;0.000;2022-07-18T02:07:34;0.40;;;0.30;;
35971;SDS011;22052;0.000;0.000;2022-07-18T02:12:35;0.60;;;0.40;;
35971;SDS011;22052;0.000;0.000;2022-07-18T02:15:05;0.45;;;0.40;;
35971;SDS011;22052;0.000;0.000;2022-07-18T02:17:34;0.35;;;0.32;;
35971;SDS011;22052;0.000;0.000;2022-07-18T02:20:03;0.45;;;0.40;;
35971;SDS011;22052;0.000;0.000;2022-07-18T02:22:31;0.30;;;0.30;;
35971;SDS011;22052;0.000;0.000;2022-07-18T02:25:00;0.40;;;0.40;;
35971;SDS011;22052;0.000;0.000;2022-07-18T02:27:28;0.38;;;0.38;;
35971;SDS011;22052;0.000;0.000;2022-07-18T02:29:57;0.30;;;0.30;;
35971;SDS011;22052;0.000;0.000;2022-07-18T02:32:25;0.40;;;0.40;;
35971;SDS011;22052;0.000;0.000;2022-07-18T02:34:54;0.40;;;0.40;;
35971;SDS011;22052;0.000;0.000;2022-07-18T02:37:22;0.30;;;0.30;;
35971;SDS011;22052;0.000;0.000;2022-07-18T02:39:51;0.30;;;0.30;;
35971;SDS011;22052;0.000;0.000;2022-07-18T02:42:20;0.50;;;0.40;;
35971;SDS011;22052;0.000;0.000;2022-07-18T02:44:47;0.40;;;0.30;;
35971;SDS011;22052;0.000;0.000;2022-07-18T02:47:18;0.30;;;0.30;;
35971;SDS011;22052;0.000;0.000;2022-07-18T02:49:46;0.40;;;0.32;;
35971;SDS011;22052;0.000;0.000;2022-07-18T02:52:14;0.38;;;0.38;;
35971;SDS011;22052;0.000;0.000;2022-07-18T02:54:45;0.38;;;0.30;;
35971;SDS011;22052;0.000;0.000;2022-07-18T02:57:14;0.40;;;0.40;;
35971;SDS011;22052;0.000;0.000;2022-07-18T02:59:44;0.38;;;0.30;;
35971;SDS011;22052;0.000;0.000;2022-07-18T03:02:11;0.35;;;0.30;;
35971;SDS011;22052;0.000;0.000;2022-07-18T03:04:39;0.60;;;0.30;;
35971;SDS011;22052;0.000;0.000;2022-07-18T03:07:06;0.40;;;0.40;;
35971;SDS011;22052;0.000;0.000;2022-07-18T03:09:35;0.30;;;0.30;;
35971;SDS011;22052;0.000;0.000;2022-07-18T03:12:03;0.30;;;0.30;;
35971;SDS011;22052;0.000;0.000;2022-07-18T03:14:31;0.25;;;0.25;;
35971;SDS011;22052;0.000;0.000;2022-07-18T03:16:59;0.38;;;0.30;;
35971;SDS011;22052;0.000;0.000;2022-07-18T03:19:29;0.20;;;0.20;;
35971;SDS011;22052;0.000;0.000;2022-07-18T03:22:03;0.30;;;0.30;;
35971;SDS011;22052;0.000;0.000;2022-07-18T03:24:32;0.20;;;0.20;;
35971;SDS011;22052;0.000;0.000;2022-07-18T03:27:00;0.20;;;0.20;;
35971;SDS011;22052;0.000;0.000;2022-07-18T03:29:27;0.22;;;0.22;;
35971;SDS011;22052;0.000;0.000;2022-07-18T03:31:55;0.57;;;0.40;;
35971;SDS011;22052;0.000;0.000;2022-07-18T03:34:26;0.68;;;0.40;;
35971;SDS011;22052;0.000;0.000;2022-07-18T03:36:56;0.68;;;0.45;;
35971;SDS011;22052;0.000;0.000;2022-07-18T03:39:24;0.28;;;0.28;;
35971;SDS011;22052;0.000;0.000;2022-07-18T03:41:53;1.13;;;0.30;;
35971;SDS011;22052;0.000;0.000;2022-07-18T03:44:23;0.63;;;0.40;;
35971;SDS011;22052;0.000;0.000;2022-07-18T03:46:52;1.02;;;0.30;;
35971;SDS011;22052;0.000;0.000;2022-07-18T03:49:20;1.00;;;0.50;;
35971;SDS011;22052;0.000;0.000;2022-07-18T03:51:49;0.85;;;0.50;;
35971;SDS011;22052;0.000;0.000;2022-07-18T03:54:22;2.05;;;0.40;;
35971;SDS011;22052;0.000;0.000;2022-07-18T03:56:50;2.47;;;0.73;;
35971;SDS011;22052;0.000;0.000;2022-07-18T03:59:17;2.45;;;0.55;;
35971;SDS011;22052;0.000;0.000;2022-07-18T04:23:53;3.22;;;0.85;;
35971;SDS011;22052;0.000;0.000;2022-07-18T04:26:50;4.78;;;1.10;;
35971;SDS011;22052;0.000;0.000;2022-07-18T04:39:33;8.98;;;1.10;;
35971;SDS011;22052;0.000;0.000;2022-07-18T04:48:17;10.02;;;1.25;;
35971;SDS011;22052;0.000;0.000;2022-07-18T04:53:39;5.60;;;1.00;;
35971;SDS011;22052;0.000;0.000;2022-07-18T04:56:33;7.22;;;1.08;;
35971;SDS011;22052;0.000;0.000;2022-07-18T04:59:45;7.22;;;1.10;;
35971;SDS011;22052;0.000;0.000;2022-07-18T05:02:14;7.65;;;1.10;;
35971;SDS011;22052;0.000;0.000;2022-07-18T05:04:47;6.57;;;1.20;;
35971;SDS011;22052;0.000;0.000;2022-07-18T05:07:53;8.18;;;1.50;;
35971;SDS011;22052;0.000;0.000;2022-07-18T05:10:40;5.75;;;1.27;;
35971;SDS011;22052;0.000;0.000;2022-07-18T05:16:07;6.00;;;1.33;;
35971;SDS011;22052;0.000;0.000;2022-07-18T05:18:36;5.33;;;1.63;;
35971;SDS011;22052;0.000;0.000;2022-07-18T05:21:24;5.82;;;1.20;;
35971;SDS011;22052;0.000;0.000;2022-07-18T05:26:55;5.28;;;1.00;;
35971;SDS011;22052;0.000;0.000;2022-07-18T05:29:38;5.70;;;1.10;;
35971;SDS011;22052;0.000;0.000;2022-07-18T05:32:27;11.05;;;0.90;;
35971;SDS011;22052;0.000;0.000;2022-07-18T05:35:10;7.25;;;1.10;;
35971;SDS011;22052;0.000;0.000;2022-07-18T05:37:47;5.05;;;0.80;;
35971;SDS011;22052;0.000;0.000;2022-07-18T05:40:43;4.82;;;1.08;;
35971;SDS011;22052;0.000;0.000;2022-07-18T05:43:23;6.72;;;1.05;;
35971;SDS011;22052;0.000;0.000;2022-07-18T05:45:54;5.70;;;0.88;;
35971;SDS011;22052;0.000;0.000;2022-07-18T05:48:42;4.10;;;0.80;;
35971;SDS011;22052;0.000;0.000;2022-07-18T05:51:37;3.33;;;0.90;;
35971;SDS011;22052;0.000;0.000;2022-07-18T05:54:39;6.53;;;1.17;;
35971;SDS011;22052;0.000;0.000;2022-07-18T05:57:47;5.80;;;1.27;;
35971;SDS011;22052;0.000;0.000;2022-07-18T06:03:29;10.63;;;1.35;;
35971;SDS011;22052;0.000;0.000;2022-07-18T06:08:35;5.45;;;0.90;;
35971;SDS011;22052;0.000;0.000;2022-07-18T06:11:35;7.72;;;1.08;;
35971;SDS011;22052;0.000;0.000;2022-07-18T06:14:33;7.22;;;1.45;;
35971;SDS011;22052;0.000;0.000;2022-07-18T06:17:16;4.40;;;0.98;;
35971;SDS011;22052;0.000;0.000;2022-07-18T06:20:13;6.65;;;1.30;;
35971;SDS011;22052;0.000;0.000;2022-07-18T06:22:51;8.35;;;1.20;;
35971;SDS011;22052;0.000;0.000;2022-07-18T06:25:25;5.97;;;1.10;;
35971;SDS011;22052;0.000;0.000;2022-07-18T06:27:54;10.50;;;1.27;;
35971;SDS011;22052;0.000;0.000;2022-07-18T06:30:23;5.25;;;1.05;;
35971;SDS011;22052;0.000;0.000;2022-07-18T06:36:13;7.15;;;1.10;;
35971;SDS011;22052;0.000;0.000;2022-07-18T06:38:57;5.80;;;0.90;;
35971;SDS011;22052;0.000;0.000;2022-07-18T06:41:38;5.78;;;1.10;;
35971;SDS011;22052;0.000;0.000;2022-07-18T06:57:00;6.10;;;1.40;;
35971;SDS011;22052;0.000;0.000;2022-07-18T06:59:56;5.10;;;1.00;;
35971;SDS011;22052;0.000;0.000;2022-07-18T07:06:12;8.32;;;1.25;;
35971;SDS011;22052;0.000;0.000;2022-07-18T07:09:02;6.50;;;1.10;;
35971;SDS011;22052;0.000;0.000;2022-07-18T07:17:29;8.43;;;1.23;;
35971;SDS011;22052;0.000;0.000;2022-07-18T07:20:29;6.40;;;1.30;;
35971;SDS011;22052;0.000;0.000;2022-07-18T07:23:30;6.70;;;1.20;;
35971;SDS011;22052;0.000;0.000;2022-07-18T07:29:07;6.00;;;1.23;;
35971;SDS011;22052;0.000;0.000;2022-07-18T07:35:01;7.75;;;1.17;;
35971;SDS011;22052;0.000;0.000;2022-07-18T07:38:08;9.57;;;1.35;;
35971;SDS011;22052;0.000;0.000;2022-07-18T07:41:04;5.50;;;1.25;;
35971;SDS011;22052;0.000;0.000;2022-07-18T07:53:39;10.90;;;1.15;;
35971;SDS011;22052;0.000;0.000;2022-07-18T07:56:54;9.93;;;1.35;;
35971;SDS011;22052;0.000;0.000;2022-07-18T08:02:53;4.93;;;1.17;;
35971;SDS011;22052;0.000;0.000;2022-07-18T08:11:41;9.88;;;1.33;;
35971;SDS011;22052;0.000;0.000;2022-07-18T08:18:07;4.03;;;1.00;;
35971;SDS011;22052;0.000;0.000;2022-07-18T08:23:50;5.78;;;1.10;;
35971;SDS011;22052;0.000;0.000;2022-07-18T08:26:34;5.50;;;1.27;;
35971;SDS011;22052;0.000;0.000;2022-07-18T08:32:10;9.77;;;1.33;;
35971;SDS011;22052;0.000;0.000;2022-07-18T08:43:36;5.28;;;1.30;;
35971;SDS011;22052;0.000;0.000;2022-07-18T09:22:56;6.47;;;1.35;;
35971;SDS011;22052;0.000;0.000;2022-07-18T09:31:55;6.80;;;1.98;;
35971;SDS011;22052;0.000;0.000;2022-07-18T09:35:09;7.72;;;1.88;;
35971;SDS011;22052;0.000;0.000;2022-07-18T09:41:03;7.25;;;1.27;;
35971;SDS011;22052;0.000;0.000;2022-07-18T09:50:00;6.88;;;1.92;;
35971;SDS011;22052;0.000;0.000;2022-07-18T09:59:13;7.13;;;1.48;;
35971;SDS011;22052;0.000;0.000;2022-07-18T10:02:31;7.68;;;1.70;;
35971;SDS011;22052;0.000;0.000;2022-07-18T10:12:05;6.93;;;1.55;;
35971;SDS011;22052;0.000;0.000;2022-07-18T10:15:00;6.88;;;1.58;;
35971;SDS011;22052;0.000;0.000;2022-07-18T10:18:06;10.85;;;1.60;;
35971;SDS011;22052;0.000;0.000;2022-07-18T10:21:14;4.57;;;1.45;;
35971;SDS011;22052;0.000;0.000;2022-07-18T10:24:16;6.03;;;1.73;;
35971;SDS011;22052;0.000;0.000;2022-07-18T10:29:34;9.70;;;1.95;;
35971;SDS011;22052;0.000;0.000;2022-07-18T10:32:39;9.13;;;1.67;;
35971;SDS011;22052;0.000;0.000;2022-07-18T10:44:38;8.32;;;1.70;;
35971;SDS011;22052;0.000;0.000;2022-07-18T10:47:11;10.48;;;1.88;;
35971;SDS011;22052;0.000;0.000;2022-07-18T11:03:41;7.85;;;1.50;;
35971;SDS011;22052;0.000;0.000;2022-07-18T11:06:19;8.10;;;1.30;;
35971;SDS011;22052;0.000;0.000;2022-07-18T11:08:55;8.20;;;1.40;;
35971;SDS011;22052;0.000;0.000;2022-07-18T11:27:52;7.88;;;1.48;;
35971;SDS011;22052;0.000;0.000;2022-07-18T11:30:26;7.47;;;1.50;;
35971;SDS011;22052;0.000;0.000;2022-07-18T11:33:32;11.43;;;1.60;;
35971;SDS011;22052;0.000;0.000;2022-07-18T11:39:33;6.57;;;1.45;;
35971;SDS011;22052;0.000;0.000;2022-07-18T11:46:08;9.70;;;1.67;;
35971;SDS011;22052;0.000;0.000;2022-07-18T11:58:57;6.75;;;1.80;;
35971;SDS011;22052;0.000;0.000;2022-07-18T12:04:59;8.80;;;1.73;;
35971;SDS011;22052;0.000;0.000;2022-07-18T12:07:55;7.78;;;1.70;;
35971;SDS011;22052;0.000;0.000;2022-07-18T12:10:33;6.03;;;1.35;;
35971;SDS011;22052;0.000;0.000;2022-07-18T12:16:47;4.88;;;1.52;;
35971;SDS011;22052;0.000;0.000;2022-07-18T12:26:01;7.60;;;2.17;;
35971;SDS011;22052;0.000;0.000;2022-07-18T12:31:57;5.82;;;1.63;;
35971;SDS011;22052;0.000;0.000;2022-07-18T12:38:15;10.02;;;1.75;;
35971;SDS011;22052;0.000;0.000;2022-07-18T12:40:52;8.35;;;1.60;;
35971;SDS011;22052;0.000;0.000;2022-07-18T12:43:38;7.43;;;1.60;;
35971;SDS011;22052;0.000;0.000;2022-07-18T12:46:25;9.40;;;1.77;;
35971;SDS011;22052;0.000;0.000;2022-07-18T12:48:59;8.50;;;1.33;;
35971;SDS011;22052;0.000;0.000;2022-07-18T12:51:36;9.63;;;1.55;;
35971;SDS011;22052;0.000;0.000;2022-07-18T12:54:06;9.73;;;1.83;;
35971;SDS011;22052;0.000;0.000;2022-07-18T12:56:42;11.27;;;2.10;;
35971;SDS011;22052;0.000;0.000;2022-07-18T12:59:15;6.55;;;1.60;;
35971;SDS011;22052;0.000;0.000;2022-07-18T13:05:19;12.15;;;1.55;;
35971;SDS011;22052;0.000;0.000;2022-07-18T13:16:20;5.80;;;1.40;;
35971;SDS011;22052;0.000;0.000;2022-07-18T13:18:51;10.27;;;1.40;;
35971;SDS011;22052;0.000;0.000;2022-07-18T13:21:21;9.52;;;1.85;;
35971;SDS011;22052;0.000;0.000;2022-07-18T13:23:53;9.68;;;1.95;;
35971;SDS011;22052;0.000;0.000;2022-07-18T13:26:22;9.63;;;1.90;;
35971;SDS011;22052;0.000;0.000;2022-07-18T13:28:55;5.13;;;1.42;;
35971;SDS011;22052;0.000;0.000;2022-07-18T13:31:33;8.68;;;1.80;;
35971;SDS011;22052;0.000;0.000;2022-07-18T13:34:02;9.98;;;2.00;;
35971;SDS011;22052;0.000;0.000;2022-07-18T13:36:34;8.32;;;1.45;;
35971;SDS011;22052;0.000;0.000;2022-07-18T13:39:07;9.80;;;1.70;;
35971;SDS011;22052;0.000;0.000;2022-07-18T13:44:42;10.75;;;1.73;;
35971;SDS011;22052;0.000;0.000;2022-07-18T13:47:17;10.00;;;2.28;;
35971;SDS011;22052;0.000;0.000;2022-07-18T13:53:03;9.82;;;1.70;;
35971;SDS011;22052;0.000;0.000;2022-07-18T13:58:18;6.47;;;1.57;;
35971;SDS011;22052;0.000;0.000;2022-07-18T14:04:20;5.28;;;1.40;;
35971;SDS011;22052;0.000;0.000;2022-07-18T14:10:03;10.57;;;2.00;;
35971;SDS011;22052;0.000;0.000;2022-07-18T14:25:28;6.95;;;1.73;;
35971;SDS011;22052;0.000;0.000;2022-07-18T14:28:25;6.47;;;1.83;;
35971;SDS011;22052;0.000;0.000;2022-07-18T14:30:55;8.32;;;1.63;;
35971;SDS011;22052;0.000;0.000;2022-07-18T14:33:26;9.02;;;1.75;;
35971;SDS011;22052;0.000;0.000;2022-07-18T14:36:02;8.52;;;1.60;;
35971;SDS011;22052;0.000;0.000;2022-07-18T14:38:29;6.93;;;1.77;;
35971;SDS011;22052;0.000;0.000;2022-07-18T14:40:58;9.25;;;1.75;;
35971;SDS011;22052;0.000;0.000;2022-07-18T14:43:27;6.40;;;1.65;;
35971;SDS011;22052;0.000;0.000;2022-07-18T14:45:58;10.98;;;1.90;;
35971;SDS011;22052;0.000;0.000;2022-07-18T14:48:30;5.78;;;1.92;;
35971;SDS011;22052;0.000;0.000;2022-07-18T14:51:05;7.57;;;2.03;;
35971;SDS011;22052;0.000;0.000;2022-07-18T14:53:33;6.80;;;1.60;;
35971;SDS011;22052;0.000;0.000;2022-07-18T14:59:11;9.82;;;1.90;;
35971;SDS011;22052;0.000;0.000;2022-07-18T15:01:42;7.30;;;1.83;;
35971;SDS011;22052;0.000;0.000;2022-07-18T15:04:22;5.78;;;1.40;;
35971;SDS011;22052;0.000;0.000;2022-07-18T15:06:54;6.88;;;1.60;;
35971;SDS011;22052;0.000;0.000;2022-07-18T15:09:30;9.10;;;1.77;;
35971;SDS011;22052;0.000;0.000;2022-07-18T15:12:01;8.05;;;2.08;;
35971;SDS011;22052;0.000;0.000;2022-07-18T15:14:38;9.40;;;1.85;;
35971;SDS011;22052;0.000;0.000;2022-07-18T15:17:13;8.35;;;2.15;;
35971;SDS011;22052;0.000;0.000;2022-07-18T15:19:44;6.67;;;1.50;;
35971;SDS011;22052;0.000;0.000;2022-07-18T15:22:16;7.55;;;1.92;;
35971;SDS011;22052;0.000;0.000;2022-07-18T15:24:44;5.70;;;1.58;;
35971;SDS011;22052;0.000;0.000;2022-07-18T15:27:14;8.50;;;1.73;;
35971;SDS011;22052;0.000;0.000;2022-07-18T15:30:02;7.53;;;1.73;;
35971;SDS011;22052;0.000;0.000;2022-07-18T15:32:39;6.03;;;2.05;;
35971;SDS011;22052;0.000;0.000;2022-07-18T15:35:07;7.63;;;2.28;;
35971;SDS011;22052;0.000;0.000;2022-07-18T15:37:53;9.13;;;2.10;;
35971;SDS011;22052;0.000;0.000;2022-07-18T15:40:22;5.82;;;1.70;;
35971;SDS011;22052;0.000;0.000;2022-07-18T15:42:49;7.85;;;1.92;;
35971;SDS011;22052;0.000;0.000;2022-07-18T15:45:17;7.40;;;1.50;;
35971;SDS011;22052;0.000;0.000;2022-07-18T15:47:45;5.78;;;1.75;;
35971;SDS011;22052;0.000;0.000;2022-07-18T15:50:14;8.45;;;1.75;;
35971;SDS011;22052;0.000;0.000;2022-07-18T15:52:47;7.75;;;1.77;;
35971;SDS011;22052;0.000;0.000;2022-07-18T15:55:17;6.73;;;1.60;;
35971;SDS011;22052;0.000;0.000;2022-07-18T15:57:49;11.90;;;2.10;;
35971;SDS011;22052;0.000;0.000;2022-07-18T16:00:17;5.47;;;1.60;;
35971;SDS011;22052;0.000;0.000;2022-07-18T16:02:46;9.50;;;1.80;;
35971;SDS011;22052;0.000;0.000;2022-07-18T16:05:22;7.72;;;2.13;;
35971;SDS011;22052;0.000;0.000;2022-07-18T16:07:50;9.80;;;1.75;;
35971;SDS011;22052;0.000;0.000;2022-07-18T16:10:17;9.20;;;2.13;;
35971;SDS011;22052;0.000;0.000;2022-07-18T16:12:48;10.35;;;1.92;;
35971;SDS011;22052;0.000;0.000;2022-07-18T16:15:19;8.88;;;2.40;;
35971;SDS011;22052;0.000;0.000;2022-07-18T16:17:58;6.10;;;1.92;;
35971;SDS011;22052;0.000;0.000;2022-07-18T16:20:32;6.75;;;1.60;;
35971;SDS011;22052;0.000;0.000;2022-07-18T16:23:11;10.45;;;2.05;;
35971;SDS011;22052;0.000;0.000;2022-07-18T16:25:38;9.48;;;2.15;;
35971;SDS011;22052;0.000;0.000;2022-07-18T16:28:10;9.48;;;1.88;;
35971;SDS011;22052;0.000;0.000;2022-07-18T16:30:45;6.78;;;2.00;;
35971;SDS011;22052;0.000;0.000;2022-07-18T16:35:44;9.63;;;1.73;;
35971;SDS011;22052;0.000;0.000;2022-07-18T16:38:18;6.70;;;1.98;;
35971;SDS011;22052;0.000;0.000;2022-07-18T16:40:48;6.55;;;1.70;;
35971;SDS011;22052;0.000;0.000;2022-07-18T16:43:18;8.65;;;2.10;;
35971;SDS011;22052;0.000;0.000;2022-07-18T16:45:49;4.15;;;1.83;;
35971;SDS011;22052;0.000;0.000;2022-07-18T16:48:19;5.85;;;1.65;;
35971;SDS011;22052;0.000;0.000;2022-07-18T16:50:48;7.15;;;2.03;;
35971;SDS011;22052;0.000;0.000;2022-07-18T16:55:58;7.68;;;1.63;;
35971;SDS011;22052;0.000;0.000;2022-07-18T16:58:30;8.00;;;1.80;;
35971;SDS011;22052;0.000;0.000;2022-07-18T17:01:03;7.85;;;2.17;;
35971;SDS011;22052;0.000;0.000;2022-07-18T17:03:32;7.65;;;1.88;;
35971;SDS011;22052;0.000;0.000;2022-07-18T17:06:01;9.48;;;2.13;;
35971;SDS011;22052;0.000;0.000;2022-07-18T17:08:33;7.28;;;2.22;;
35971;SDS011;22052;0.000;0.000;2022-07-18T17:11:08;6.88;;;1.70;;
35971;SDS011;22052;0.000;0.000;2022-07-18T17:13:40;6.93;;;2.10;;
35971;SDS011;22052;0.000;0.000;2022-07-18T17:16:16;11.07;;;2.17;;
35971;SDS011;22052;0.000;0.000;2022-07-18T17:18:44;7.85;;;1.95;;
35971;SDS011;22052;0.000;0.000;2022-07-18T17:21:16;6.97;;;1.83;;
35971;SDS011;22052;0.000;0.000;2022-07-18T17:26:29;13.13;;;2.28;;
35971;SDS011;22052;0.000;0.000;2022-07-18T17:29:04;10.55;;;2.35;;
35971;SDS011;22052;0.000;0.000;2022-07-18T17:31:32;14.57;;;2.53;;
35971;SDS011;22052;0.000;0.000;2022-07-18T17:34:02;8.82;;;2.03;;
35971;SDS011;22052;0.000;0.000;2022-07-18T17:36:33;9.15;;;1.92;;
35971;SDS011;22052;0.000;0.000;2022-07-18T17:39:02;8.40;;;1.90;;
35971;SDS011;22052;0.000;0.000;2022-07-18T17:41:34;7.13;;;2.10;;
35971;SDS011;22052;0.000;0.000;2022-07-18T17:44:04;11.40;;;2.65;;
35971;SDS011;22052;0.000;0.000;2022-07-18T17:46:33;9.13;;;2.00;;
35971;SDS011;22052;0.000;0.000;2022-07-18T17:49:02;8.80;;;1.85;;
35971;SDS011;22052;0.000;0.000;2022-07-18T17:51:31;14.25;;;2.05;;
35971;SDS011;22052;0.000;0.000;2022-07-18T17:54:00;7.28;;;2.03;;
35971;SDS011;22052;0.000;0.000;2022-07-18T17:56:27;7.68;;;2.00;;
35971;SDS011;22052;0.000;0.000;2022-07-18T17:58:57;8.98;;;2.20;;
35971;SDS011;22052;0.000;0.000;2022-07-18T18:01:26;7.13;;;1.80;;
35971;SDS011;22052;0.000;0.000;2022-07-18T18:03:54;7.50;;;2.10;;
35971;SDS011;22052;0.000;0.000;2022-07-18T18:06:23;9.55;;;2.00;;
35971;SDS011;22052;0.000;0.000;2022-07-18T18:09:07;10.45;;;2.30;;
35971;SDS011;22052;0.000;0.000;2022-07-18T18:11:50;10.07;;;2.00;;
35971;SDS011;22052;0.000;0.000;2022-07-18T18:14:18;6.20;;;2.00;;
35971;SDS011;22052;0.000;0.000;2022-07-18T18:16:47;9.25;;;2.10;;
35971;SDS011;22052;0.000;0.000;2022-07-18T18:19:20;10.48;;;2.10;;
35971;SDS011;22052;0.000;0.000;2022-07-18T18:21:49;7.57;;;2.00;;
35971;SDS011;22052;0.000;0.000;2022-07-18T18:24:19;8.60;;;2.63;;
35971;SDS011;22052;0.000;0.000;2022-07-18T18:26:51;6.57;;;1.58;;
35971;SDS011;22052;0.000;0.000;2022-07-18T18:29:26;10.45;;;2.40;;
35971;SDS011;22052;0.000;0.000;2022-07-18T18:31:54;10.35;;;2.38;;
35971;SDS011;22052;0.000;0.000;2022-07-18T18:34:25;9.73;;;2.33;;
35971;SDS011;22052;0.000;0.000;2022-07-18T18:36:54;9.32;;;2.20;;
35971;SDS011;22052;0.000;0.000;2022-07-18T18:39:28;7.40;;;1.90;;
35971;SDS011;22052;0.000;0.000;2022-07-18T18:42:03;8.48;;;2.17;;
35971;SDS011;22052;0.000;0.000;2022-07-18T18:44:35;5.35;;;1.90;;
35971;SDS011;22052;0.000;0.000;2022-07-18T18:47:05;6.68;;;2.13;;
35971;SDS011;22052;0.000;0.000;2022-07-18T18:49:34;6.32;;;2.28;;
35971;SDS011;22052;0.000;0.000;2022-07-18T19:08:10;10.10;;;1.98;;
35971;SDS011;22052;0.000;0.000;2022-07-18T19:10:42;9.37;;;2.60;;
35971;SDS011;22052;0.000;0.000;2022-07-18T19:13:11;5.35;;;2.00;;
35971;SDS011;22052;0.000;0.000;2022-07-18T19:15:39;6.45;;;2.17;;
35971;SDS011;22052;0.000;0.000;2022-07-18T19:18:10;8.25;;;2.20;;
35971;SDS011;22052;0.000;0.000;2022-07-18T19:20:41;7.82;;;2.13;;
35971;SDS011;22052;0.000;0.000;2022-07-18T19:23:13;10.90;;;2.08;;
35971;SDS011;22052;0.000;0.000;2022-07-18T19:25:41;9.10;;;2.50;;
35971;SDS011;22052;0.000;0.000;2022-07-18T19:28:09;7.53;;;2.05;;
35971;SDS011;22052;0.000;0.000;2022-07-18T19:30:38;9.00;;;2.35;;
35971;SDS011;22052;0.000;0.000;2022-07-18T19:33:07;5.43;;;1.73;;
35971;SDS011;22052;0.000;0.000;2022-07-18T19:35:36;10.13;;;2.28;;
35971;SDS011;22052;0.000;0.000;2022-07-18T19:38:04;11.90;;;2.50;;
35971;SDS011;22052;0.000;0.000;2022-07-18T19:40:32;8.20;;;2.00;;
35971;SDS011;22052;0.000;0.000;2022-07-18T19:43:00;7.70;;;2.38;;
35971;SDS011;22052;0.000;0.000;2022-07-18T19:45:39;8.48;;;2.38;;
35971;SDS011;22052;0.000;0.000;2022-07-18T19:48:09;10.07;;;2.42;;
35971;SDS011;22052;0.000;0.000;2022-07-18T19:50:38;5.82;;;2.05;;
35971;SDS011;22052;0.000;0.000;2022-07-18T19:53:06;6.13;;;2.15;;
35971;SDS011;22052;0.000;0.000;2022-07-18T19:55:36;6.88;;;1.88;;
35971;SDS011;22052;0.000;0.000;2022-07-18T19:58:08;8.48;;;2.25;;
35971;SDS011;22052;0.000;0.000;2022-07-18T20:00:42;7.55;;;2.13;;
35971;SDS011;22052;0.000;0.000;2022-07-18T20:03:11;9.75;;;2.13;;
35971;SDS011;22052;0.000;0.000;2022-07-18T20:05:40;8.68;;;2.05;;
35971;SDS011;22052;0.000;0.000;2022-07-18T20:08:12;7.18;;;2.20;;
35971;SDS011;22052;0.000;0.000;2022-07-18T20:10:49;7.38;;;2.22;;
35971;SDS011;22052;0.000;0.000;2022-07-18T20:13:19;9.90;;;2.00;;
35971;SDS011;22052;0.000;0.000;2022-07-18T20:15:47;8.60;;;2.38;;
35971;SDS011;22052;0.000;0.000;2022-07-18T20:18:16;7.90;;;2.03;;
35971;SDS011;22052;0.000;0.000;2022-07-18T20:20:48;8.90;;;2.50;;
35971;SDS011;22052;0.000;0.000;2022-07-18T20:23:15;8.77;;;2.38;;
35971;SDS011;22052;0.000;0.000;2022-07-18T20:25:44;10.27;;;2.55;;
35971;SDS011;22052;0.000;0.000;2022-07-18T20:28:13;8.38;;;2.10;;
35971;SDS011;22052;0.000;0.000;2022-07-18T20:30:43;9.90;;;2.55;;
35971;SDS011;22052;0.000;0.000;2022-07-18T20:33:11;6.32;;;2.30;;
35971;SDS011;22052;0.000;0.000;2022-07-18T20:35:39;6.90;;;2.28;;
35971;SDS011;22052;0.000;0.000;2022-07-18T20:38:07;9.68;;;1.90;;
35971;SDS011;22052;0.000;0.000;2022-07-18T20:40:36;10.02;;;2.35;;
35971;SDS011;22052;0.000;0.000;2022-07-18T20:43:04;6.63;;;2.08;;
35971;SDS011;22052;0.000;0.000;2022-07-18T20:45:33;9.50;;;2.40;;
35971;SDS011;22052;0.000;0.000;2022-07-18T20:48:01;9.32;;;2.22;;
35971;SDS011;22052;0.000;0.000;2022-07-18T20:50:30;6.85;;;2.28;;
35971;SDS011;22052;0.000;0.000;2022-07-18T20:52:59;12.35;;;2.60;;
35971;SDS011;22052;0.000;0.000;2022-07-18T20:55:27;11.75;;;2.10;;
35971;SDS011;22052;0.000;0.000;2022-07-18T20:57:56;9.18;;;1.80;;
35971;SDS011;22052;0.000;0.000;2022-07-18T21:00:26;8.18;;;2.20;;
35971;SDS011;22052;0.000;0.000;2022-07-18T21:02:54;6.32;;;2.35;;
35971;SDS011;22052;0.000;0.000;2022-07-18T21:05:22;9.00;;;2.10;;
35971;SDS011;22052;0.000;0.000;2022-07-18T21:07:50;8.80;;;2.30;;
35971;SDS011;22052;0.000;0.000;2022-07-18T21:10:19;7.55;;;2.42;;
35971;SDS011;22052;0.000;0.000;2022-07-18T21:12:48;11.20;;;2.10;;
35971;SDS011;22052;0.000;0.000;2022-07-18T21:15:16;6.25;;;2.22;;
35971;SDS011;22052;0.000;0.000;2022-07-18T21:17:48;8.77;;;2.22;;
35971;SDS011;22052;0.000;0.000;2022-07-18T21:20:21;7.15;;;2.15;;